Terminal Aerodrome Forecast
Issued by NWS Cleveland, OH

Home | Current Version | Previous Version | Text Only | Print | Product List | Glossary On
Versions: 1 2 3 4 5 6 7 8 9 10 11 12 13 14 15 16 17 18 19 20 21 22 23 24 25 26 27
000
FTUS41 KCLE 170300 AAA
TAFCLE
TAF AMD
KCLE 170302Z 1703/1806 10008KT P6SM BKN250
     FM170700 14010KT P6SM SCT250
     FM171500 18012KT P6SM SCT250
     FM180000 18008KT P6SM BKN250=

USA.gov is the U.S. government's official web portal to all federal, state and local government web resources and services.